Time;durP1;ratioP1;P1;durP2;ratioP2;P2;SDS_P1;SDS_P2;PMS_P1;PMS_P2;Temp;Humidity;BMP_temperature;BMP_pressure;BME280_temperature;BME280_humidity;BME280_pressure;Samples;Min_cycle;Max_cycle;Signal;HPM_P1;HPM_P2
2022/01/07 00:00:07;;;;;;;34.42;17.75;;;;;;;0.12;100.00;101343.84;4896917;29;20037;-76
2022/01/07 00:02:38;;;;;;;34.63;18.08;;;;;;;0.26;100.00;101336.72;4897125;29;20052;-76
2022/01/07 00:05:07;;;;;;;38.33;17.02;;;;;;;0.16;100.00;101334.34;4896416;29;20056;-76
2022/01/07 00:07:35;;;;;;;32.63;17.10;;;;;;;0.05;100.00;101337.56;4896485;29;20417;-76
2022/01/07 00:10:05;;;;;;;44.55;18.05;;;;;;;-0.04;100.00;101339.53;4896650;29;20850;-76
2022/01/07 00:12:33;;;;;;;33.67;17.10;;;;;;;-0.12;100.00;101337.78;4896528;29;20527;-76
2022/01/07 00:15:01;;;;;;;37.92;17.08;;;;;;;-0.04;100.00;101334.97;4896744;29;20060;-76
2022/01/07 00:17:29;;;;;;;37.47;19.35;;;;;;;0.17;100.00;101336.03;4896413;29;20057;-76
2022/01/07 00:19:57;;;;;;;39.55;18.30;;;;;;;0.22;100.00;101344.34;4896254;29;20064;-76
2022/01/07 00:22:25;;;;;;;37.10;18.33;;;;;;;0.06;100.00;101341.91;4896735;29;20053;-76
2022/01/07 00:24:53;;;;;;;38.17;17.58;;;;;;;-0.08;100.00;101347.16;4896760;29;20064;-76
2022/01/07 00:27:20;;;;;;;39.58;18.60;;;;;;;-0.17;100.00;101340.19;4896563;29;20057;-76
2022/01/07 00:29:51;;;;;;;42.08;17.48;;;;;;;-0.27;100.00;101345.88;4896419;29;20048;-76
2022/01/07 00:32:19;;;;;;;33.45;16.10;;;;;;;-0.34;100.00;101345.78;4896655;29;20049;-76
2022/01/07 00:34:48;;;;;;;33.95;17.17;;;;;;;-0.43;100.00;101342.38;4896263;29;20052;-76
2022/01/07 00:37:15;;;;;;;32.65;15.82;;;;;;;-0.43;100.00;101355.81;4896300;29;20068;-76
2022/01/07 00:39:45;;;;;;;35.03;17.08;;;;;;;-0.43;100.00;101347.75;4896476;29;20055;-76
2022/01/07 00:42:13;;;;;;;38.97;16.67;;;;;;;-0.41;100.00;101348.41;4900198;29;20056;-76
2022/01/07 00:44:41;;;;;;;32.40;15.27;;;;;;;-0.39;100.00;101342.84;4900605;29;20052;-76
2022/01/07 00:47:09;;;;;;;36.80;16.77;;;;;;;-0.44;100.00;101350.66;4900084;29;20060;-76
2022/01/07 00:49:37;;;;;;;32.58;15.30;;;;;;;-0.47;100.00;101351.00;4900658;29;20571;-76
2022/01/07 00:52:06;;;;;;;32.92;15.13;;;;;;;-0.48;100.00;101355.56;4900616;29;20044;-76
2022/01/07 00:54:34;;;;;;;30.98;15.43;;;;;;;-0.30;100.00;101357.84;4899888;29;20057;-76
2022/01/07 00:57:02;;;;;;;29.85;16.83;;;;;;;-0.27;100.00;101362.03;4900471;29;20476;-76
2022/01/07 00:59:30;;;;;;;35.35;15.13;;;;;;;-0.26;100.00;101370.94;4900126;29;20531;-76
2022/01/07 01:01:58;;;;;;;35.53;15.13;;;;;;;-0.35;100.00;101359.47;4886977;29;20048;-76
2022/01/07 01:04:42;;;;;;;28.08;14.07;;;;;;;-0.44;100.00;101369.47;4900089;29;20047;-76
2022/01/07 01:07:12;;;;;;;30.83;15.23;;;;;;;-0.50;100.00;101357.59;4899756;29;20045;-76
2022/01/07 01:09:42;;;;;;;34.33;14.52;;;;;;;-0.51;100.00;101358.63;4900138;29;20059;-76
2022/01/07 01:12:11;;;;;;;30.98;15.27;;;;;;;-0.45;100.00;101367.78;4887058;29;20412;-76
2022/01/07 01:14:39;;;;;;;31.88;15.70;;;;;;;-0.48;100.00;101365.50;4899634;29;20531;-76
2022/01/07 01:17:08;;;;;;;33.90;15.27;;;;;;;-0.50;100.00;101367.53;4899909;29;20040;-76
2022/01/07 01:19:37;;;;;;;32.42;14.63;;;;;;;-0.48;100.00;101370.88;4900056;29;20044;-76
2022/01/07 01:22:06;;;;;;;31.83;14.10;;;;;;;-0.51;100.00;101365.84;4899465;29;20519;-76
2022/01/07 01:24:34;;;;;;;33.20;13.50;;;;;;;-0.53;100.00;101373.28;4899819;29;20052;-76
2022/01/07 01:27:02;;;;;;;30.15;13.43;;;;;;;-0.55;100.00;101371.59;4899544;29;20060;-76
2022/01/07 01:29:31;;;;;;;28.23;13.13;;;;;;;-0.42;100.00;101373.66;4899383;29;20504;-76
2022/01/07 01:32:00;;;;;;;28.52;13.40;;;;;;;-0.39;100.00;101374.28;4899686;29;20126;-76
2022/01/07 01:34:27;;;;;;;30.42;14.50;;;;;;;-0.38;100.00;101376.81;4899257;29;20067;-76
2022/01/07 01:36:55;;;;;;;31.55;13.55;;;;;;;-0.29;100.00;101378.34;4899075;29;20523;-76
2022/01/07 01:39:23;;;;;;;33.85;14.02;;;;;;;-0.34;100.00;101388.00;4899199;29;20052;-76
2022/01/07 01:41:52;;;;;;;30.40;13.80;;;;;;;-0.20;100.00;101389.03;4899170;29;20061;-76
2022/01/07 01:44:20;;;;;;;25.27;12.68;;;;;;;-0.30;100.00;101387.44;4899154;29;20049;-76
2022/01/07 01:46:48;;;;;;;30.48;12.32;;;;;;;-0.20;100.00;101391.72;4899068;29;20415;-75
2022/01/07 01:49:16;;;;;;;30.13;12.55;;;;;;;0.02;100.00;101389.91;4899165;29;20408;-76
2022/01/07 01:51:44;;;;;;;23.33;12.13;;;;;;;0.05;100.00;101389.50;4898477;29;20078;-76
2022/01/07 01:54:12;;;;;;;28.77;13.57;;;;;;;0.02;99.88;101386.38;4898853;29;20057;-76
2022/01/07 01:56:41;;;;;;;33.33;13.93;;;;;;;-0.05;99.35;101387.13;4899220;29;20056;-76
2022/01/07 01:59:10;;;;;;;29.70;11.48;;;;;;;-0.09;100.00;101380.47;4898953;29;20060;-76
2022/01/07 02:01:40;;;;;;;33.13;12.70;;;;;;;-0.12;100.00;101378.13;4898840;29;20052;-76
2022/01/07 02:04:08;;;;;;;33.05;12.85;;;;;;;-0.14;100.00;101380.19;4899068;29;20068;-76
2022/01/07 02:06:37;;;;;;;28.83;12.07;;;;;;;-0.14;100.00;101388.28;4898857;29;20053;-76
2022/01/07 02:09:05;;;;;;;24.38;11.40;;;;;;;0.10;100.00;101383.56;4898744;29;20053;-76
2022/01/07 02:11:34;;;;;;;25.67;11.82;;;;;;;0.14;100.00;101379.47;4899079;29;20060;-76
2022/01/07 02:14:02;;;;;;;27.08;11.48;;;;;;;0.13;100.00;101377.78;4898896;29;20064;-76
2022/01/07 02:16:30;;;;;;;23.10;10.02;;;;;;;0.10;100.00;101372.81;4899016;29;20055;-76
2022/01/07 02:18:59;;;;;;;20.10;10.90;;;;;;;0.10;100.00;101375.50;4898540;29;20049;-76
2022/01/07 02:21:27;;;;;;;16.58;8.77;;;;;;;0.13;100.00;101369.72;4898527;29;20061;-75
2022/01/07 02:23:54;;;;;;;21.35;9.52;;;;;;;0.20;100.00;101364.41;4898756;29;20052;-76
2022/01/07 02:26:22;;;;;;;18.38;8.93;;;;;;;0.53;97.87;101370.13;4898339;29;20069;-76
2022/01/07 02:28:50;;;;;;;17.10;9.50;;;;;;;0.73;95.78;101363.25;4898749;29;20484;-76
2022/01/07 02:31:18;;;;;;;19.52;9.93;;;;;;;0.83;94.76;101362.91;4896797;29;20057;-76
2022/01/07 02:33:46;;;;;;;21.65;10.00;;;;;;;0.79;93.56;101360.59;4898084;29;20486;-76
2022/01/07 02:36:14;;;;;;;18.77;9.98;;;;;;;0.68;94.47;101355.72;4898645;29;20051;-76
2022/01/07 02:38:42;;;;;;;23.63;9.73;;;;;;;0.50;96.18;101353.53;4898606;29;20518;-76
2022/01/07 02:41:10;;;;;;;20.42;9.57;;;;;;;0.42;96.30;101354.47;4897379;29;20036;-75
2022/01/07 02:43:38;;;;;;;23.08;10.38;;;;;;;0.35;97.53;101354.41;4898521;29;20053;-76
2022/01/07 02:46:06;;;;;;;20.13;9.95;;;;;;;0.30;97.36;101356.88;4897749;29;20412;-76
2022/01/07 02:48:34;;;;;;;18.30;9.45;;;;;;;0.28;98.21;101358.91;4897966;29;20512;-76
2022/01/07 02:51:03;;;;;;;23.33;9.32;;;;;;;0.28;96.93;101355.38;4897880;29;20060;-76
2022/01/07 02:53:30;;;;;;;23.17;11.07;;;;;;;0.24;97.95;101353.06;4897296;29;20512;-76
2022/01/07 02:55:58;;;;;;;23.98;10.27;;;;;;;0.20;97.10;101362.53;4897873;29;20049;-76
2022/01/07 02:58:26;;;;;;;19.52;9.15;;;;;;;0.47;95.28;101351.19;4898048;29;20055;-76
2022/01/07 03:00:54;;;;;;;24.02;11.32;;;;;;;0.60;95.33;101350.50;4897734;29;20500;-76
2022/01/07 03:03:22;;;;;;;25.75;10.60;;;;;;;0.57;96.70;101350.88;4897086;29;20059;-76
2022/01/07 03:05:50;;;;;;;21.83;10.70;;;;;;;0.55;96.81;101358.31;4897679;29;20057;-76
2022/01/07 03:08:18;;;;;;;26.73;10.75;;;;;;;0.35;98.23;101353.59;4898022;29;20055;-76
2022/01/07 03:10:47;;;;;;;25.13;10.77;;;;;;;0.17;98.69;101356.72;4897727;29;20049;-76
2022/01/07 03:13:15;;;;;;;21.65;10.63;;;;;;;0.02;98.84;101368.38;4897847;29;20477;-76
2022/01/07 03:15:42;;;;;;;25.50;10.05;;;;;;;-0.02;99.20;101364.38;4897508;29;20056;-77
2022/01/07 03:18:10;;;;;;;29.88;12.55;;;;;;;-0.08;100.00;101363.28;4898024;29;20420;-76
2022/01/07 03:20:39;;;;;;;26.90;11.15;;;;;;;-0.11;100.00;101360.97;4897829;29;20040;-76
2022/01/07 03:23:12;;;;;;;25.67;10.98;;;;;;;-0.09;99.11;101361.63;4897701;29;20053;-76
2022/01/07 03:25:42;;;;;;;28.42;10.27;;;;;;;-0.11;99.49;101362.84;4897440;29;20079;-76
2022/01/07 03:28:10;;;;;;;24.88;10.23;;;;;;;-0.19;100.00;101364.59;4897670;29;20515;-76
2022/01/07 03:30:39;;;;;;;23.58;9.75;;;;;;;-0.28;100.00;101369.25;4897189;29;20056;-76
2022/01/07 03:33:07;;;;;;;25.17;11.45;;;;;;;-0.33;100.00;101366.31;4897410;29;20052;-76
2022/01/07 03:35:36;;;;;;;26.67;11.27;;;;;;;-0.22;100.00;101367.69;4897672;29;20049;-76
2022/01/07 03:38:04;;;;;;;22.95;9.93;;;;;;;-0.05;100.00;101370.97;4897192;29;20053;-76
2022/01/07 03:40:33;;;;;;;20.23;9.63;;;;;;;-0.20;100.00;101364.81;4897131;29;20060;-76
2022/01/07 03:43:01;;;;;;;21.42;9.27;;;;;;;-0.34;100.00;101361.13;4896953;29;20102;-76
2022/01/07 03:45:29;;;;;;;21.73;10.02;;;;;;;-0.45;100.00;101365.94;4896774;29;20056;-76
2022/01/07 03:47:57;;;;;;;22.98;9.70;;;;;;;-0.52;100.00;101366.88;4896694;29;20068;-76
2022/01/07 03:50:28;;;;;;;22.70;10.02;;;;;;;-0.55;100.00;101360.00;4897149;29;20069;-76
2022/01/07 03:52:58;;;;;;;20.27;9.77;;;;;;;-0.55;100.00;101371.59;4895653;29;20053;-76
2022/01/07 03:55:30;;;;;;;19.60;9.52;;;;;;;-0.58;100.00;101365.78;4897288;29;20056;-76
2022/01/07 03:57:58;;;;;;;24.85;10.18;;;;;;;-0.61;100.00;101355.38;4897340;29;20134;-75
2022/01/07 04:00:33;;;;;;;22.67;9.60;;;;;;;-0.65;100.00;101362.16;4897176;29;20055;-76
2022/01/07 04:03:10;;;;;;;17.25;8.30;;;;;;;-0.64;100.00;101363.84;4896998;29;20060;-75
2022/01/07 04:05:38;;;;;;;17.42;8.38;;;;;;;-0.64;100.00;101353.91;4896746;29;20053;-76
2022/01/07 04:08:06;;;;;;;18.77;7.30;;;;;;;-0.70;100.00;101358.19;4896538;29;20060;-75
2022/01/07 04:10:35;;;;;;;13.80;7.35;;;;;;;-0.72;100.00;101359.38;4896657;29;20063;-76
2022/01/07 04:13:04;;;;;;;11.23;6.38;;;;;;;-0.72;100.00;101362.06;4896671;29;20386;-76
2022/01/07 04:15:33;;;;;;;12.75;6.50;;;;;;;-0.72;100.00;101364.75;4896200;29;20060;-75
2022/01/07 04:18:01;;;;;;;14.98;6.43;;;;;;;-0.69;100.00;101362.53;4896789;29;20063;-75
2022/01/07 04:20:32;;;;;;;16.00;6.45;;;;;;;-0.73;100.00;101360.41;4896875;29;20056;-76
2022/01/07 04:23:00;;;;;;;12.88;6.38;;;;;;;-0.76;100.00;101352.69;4896599;29;20048;-76
2022/01/07 04:25:29;;;;;;;11.85;5.65;;;;;;;-0.83;100.00;101356.13;4896252;29;20055;-75
2022/01/07 04:28:00;;;;;;;11.38;5.88;;;;;;;-0.86;100.00;101350.28;4896517;29;20079;-76
2022/01/07 04:30:34;;;;;;;11.85;5.70;;;;;;;-0.83;100.00;101363.38;4896455;29;20052;-76
2022/01/07 04:33:04;;;;;;;14.10;6.20;;;;;;;-0.89;100.00;101364.09;4896577;29;20048;-76
2022/01/07 04:35:34;;;;;;;10.55;6.47;;;;;;;-0.72;100.00;101359.38;4896660;29;20056;-76
2022/01/07 04:38:03;;;;;;;13.05;6.47;;;;;;;-0.74;100.00;101364.94;4896611;29;20048;-76
2022/01/07 04:40:32;;;;;;;12.55;6.18;;;;;;;-0.64;100.00;101366.53;4896706;29;20059;-75
2022/01/07 04:43:01;;;;;;;15.52;6.65;;;;;;;-0.58;100.00;101366.59;4896367;29;20053;-76
2022/01/07 04:45:29;;;;;;;13.65;6.40;;;;;;;-0.49;100.00;101369.19;4896477;29;20048;-76
2022/01/07 04:47:56;;;;;;;14.75;7.38;;;;;;;-0.59;100.00;101364.13;4896162;29;20052;-76
2022/01/07 04:50:25;;;;;;;19.92;8.10;;;;;;;-0.71;100.00;101363.72;4896674;29;20060;-75
2022/01/07 04:52:53;;;;;;;16.50;7.85;;;;;;;-0.82;100.00;101376.59;4896220;29;20044;-75
2022/01/07 04:55:29;;;;;;;18.27;7.95;;;;;;;-0.73;100.00;101379.22;4896613;29;20041;-75
2022/01/07 04:57:57;;;;;;;19.83;8.30;;;;;;;-0.83;100.00;101372.25;4896174;29;20057;-75
2022/01/07 05:00:25;;;;;;;17.88;8.85;;;;;;;-0.70;100.00;101374.31;4896653;29;20044;-75
2022/01/07 05:02:53;;;;;;;12.38;6.70;;;;;;;-0.76;99.69;101380.41;4896275;29;20512;-75
2022/01/07 05:05:21;;;;;;;15.32;6.70;;;;;;;-0.80;99.77;101375.59;4883454;29;20049;-75
2022/01/07 05:07:49;;;;;;;18.42;7.75;;;;;;;-0.90;100.00;101368.63;4895350;29;20057;-75
2022/01/07 05:10:17;;;;;;;21.05;8.65;;;;;;;-1.03;100.00;101368.44;4896363;29;20044;-75
2022/01/07 05:12:46;;;;;;;17.55;7.63;;;;;;;-1.13;100.00;101374.91;4896058;29;20055;-75
2022/01/07 05:15:17;;;;;;;21.55;9.27;;;;;;;-1.18;100.00;101374.59;4896231;29;20493;-75
2022/01/07 05:17:46;;;;;;;20.00;9.68;;;;;;;-0.95;100.00;101379.09;4896296;29;20048;-75
2022/01/07 05:20:15;;;;;;;27.02;10.05;;;;;;;-1.03;99.50;101363.88;4896002;29;20049;-75
2022/01/07 05:22:44;;;;;;;28.65;10.57;;;;;;;-1.10;99.37;101369.16;4895927;29;20057;-75
2022/01/07 05:25:13;;;;;;;31.00;11.20;;;;;;;-1.13;99.36;101364.16;4895938;29;20126;-75
2022/01/07 05:27:41;;;;;;;25.00;11.68;;;;;;;-1.18;100.00;101355.81;4897293;29;20056;-75
2022/01/07 05:30:11;;;;;;;23.95;9.38;;;;;;;-1.18;100.00;101355.81;4899675;29;20429;-75
2022/01/07 05:32:39;;;;;;;17.58;8.32;;;;;;;-1.22;100.00;101370.63;4899288;29;20056;-75
2022/01/07 05:35:08;;;;;;;20.48;9.00;;;;;;;-1.15;100.00;101360.81;4899414;29;20138;-75
2022/01/07 05:37:36;;;;;;;24.27;9.90;;;;;;;-1.19;100.00;101362.19;4898617;29;20377;-75
2022/01/07 05:40:05;;;;;;;22.10;9.13;;;;;;;-1.24;100.00;101357.38;4899394;29;20044;-75
2022/01/07 05:42:33;;;;;;;18.73;7.80;;;;;;;-1.27;100.00;101364.97;4899410;29;20137;-75
2022/01/07 05:45:01;;;;;;;17.67;7.97;;;;;;;-1.28;100.00;101360.63;4898992;29;20056;-75
2022/01/07 05:47:29;;;;;;;14.52;7.40;;;;;;;-1.34;100.00;101362.16;4898798;29;20063;-74
2022/01/07 05:49:57;;;;;;;15.85;7.88;;;;;;;-1.37;100.00;101362.53;4899540;29;20051;-75
2022/01/07 05:52:25;;;;;;;20.05;8.25;;;;;;;-1.38;100.00;101361.69;4898924;29;20060;-75
2022/01/07 05:54:53;;;;;;;25.60;9.05;;;;;;;-1.17;100.00;101360.16;4898899;29;20044;-74
2022/01/07 05:57:21;;;;;;;16.80;8.07;;;;;;;-1.15;100.00;101366.19;4898792;29;20057;-75
2022/01/07 05:59:49;;;;;;;21.08;8.43;;;;;;;-1.19;100.00;101380.19;4898308;29;20530;-75
2022/01/07 06:02:17;;;;;;;22.73;8.88;;;;;;;-1.03;100.00;101373.81;4907228;29;20047;-74
2022/01/07 06:04:48;;;;;;;28.95;11.82;;;;;;;-1.12;99.77;101379.25;4900064;29;20060;-74
2022/01/07 06:07:16;;;;;;;27.52;11.98;;;;;;;-1.28;99.02;101382.09;4898133;29;20065;-74
2022/01/07 06:09:44;;;;;;;24.25;10.00;;;;;;;-1.42;99.30;101387.22;4898856;29;20051;-74
2022/01/07 06:12:12;;;;;;;25.17;10.52;;;;;;;-1.48;99.08;101390.63;4904095;29;20048;-74
2022/01/07 06:14:40;;;;;;;22.08;9.43;;;;;;;-1.39;99.14;101392.25;4917229;29;20048;-74
2022/01/07 06:17:10;;;;;;;33.90;10.52;;;;;;;-1.28;98.86;101392.84;4917469;29;20048;-74
2022/01/07 06:19:38;;;;;;;19.42;8.63;;;;;;;-1.39;99.65;101403.00;4908730;29;20049;-74
2022/01/07 06:22:10;;;;;;;28.60;10.00;;;;;;;-1.45;99.58;101403.72;4909054;29;20063;-74
2022/01/07 06:24:38;;;;;;;19.63;9.00;;;;;;;-1.54;99.46;101394.03;4917155;29;20052;-75
2022/01/07 06:27:06;;;;;;;24.08;9.10;;;;;;;-1.59;98.69;101402.63;4917227;29;20399;-75
2022/01/07 06:29:35;;;;;;;27.88;8.80;;;;;;;-1.62;99.73;101403.81;4917496;29;20051;-75
2022/01/07 06:32:04;;;;;;;20.60;9.80;;;;;;;-1.66;100.00;101402.50;4915727;29;20040;-75
2022/01/07 06:34:33;;;;;;;23.40;9.32;;;;;;;-1.70;100.00;101406.56;4903258;29;20044;-75
2022/01/07 06:37:02;;;;;;;19.23;9.13;;;;;;;-1.71;100.00;101404.88;4910720;29;20048;-75
2022/01/07 06:39:32;;;;;;;20.20;7.55;;;;;;;-1.56;97.88;101404.94;4911491;29;20074;-74
2022/01/07 06:42:01;;;;;;;18.15;6.47;;;;;;;-1.45;98.03;101411.75;4911242;29;20044;-75
2022/01/07 06:44:29;;;;;;;15.98;6.10;;;;;;;-1.46;97.30;101415.47;4907822;29;20052;-78
2022/01/07 06:46:57;;;;;;;17.25;7.22;;;;;;;-1.51;98.23;101407.09;4913519;29;20048;-78
2022/01/07 06:49:25;;;;;;;12.10;5.82;;;;;;;-1.58;96.36;101415.03;4916665;29;20519;-78
2022/01/07 06:51:54;;;;;;;13.68;6.25;;;;;;;-1.51;96.59;101412.47;4916562;29;20067;-78
2022/01/07 06:54:21;;;;;;;8.98;4.53;;;;;;;-1.40;95.66;101404.00;4916329;29;20056;-78
2022/01/07 06:56:49;;;;;;;6.65;4.20;;;;;;;-1.40;94.87;101412.06;4897575;29;20049;-78
2022/01/07 06:59:17;;;;;;;4.45;3.33;;;;;;;-1.29;94.69;101418.00;4897931;29;20079;-78
2022/01/07 07:01:47;;;;;;;9.88;4.60;;;;;;;-1.26;95.11;101412.28;4900720;29;20048;-78
2022/01/07 07:04:16;;;;;;;7.68;3.78;;;;;;;-1.29;93.76;101418.00;4897887;29;20057;-77
2022/01/07 07:06:44;;;;;;;7.30;3.55;;;;;;;-1.28;93.64;101419.69;4905581;29;20048;-78
2022/01/07 07:09:13;;;;;;;6.00;3.80;;;;;;;-1.33;93.56;101424.78;4904884;29;20056;-78
2022/01/07 07:11:43;;;;;;;9.10;4.15;;;;;;;-1.37;92.90;101417.06;4911369;29;20416;-78
2022/01/07 07:14:12;;;;;;;6.05;3.35;;;;;;;-1.39;93.99;101429.84;4910485;29;20044;-79
2022/01/07 07:16:40;;;;;;;6.88;3.38;;;;;;;-1.38;94.14;101438.72;4910503;29;20496;-77
2022/01/07 07:19:08;;;;;;;7.97;3.80;;;;;;;-1.35;95.17;101425.75;4909038;29;20056;-78
2022/01/07 07:21:36;;;;;;;4.82;3.33;;;;;;;-1.29;94.86;101423.38;4915893;29;20059;-78
2022/01/07 07:24:05;;;;;;;6.70;3.58;;;;;;;-1.20;93.76;101411.56;4915511;29;20132;-78
2022/01/07 07:26:33;;;;;;;5.35;3.70;;;;;;;-1.13;93.03;101417.88;4916085;29;20051;-78
2022/01/07 07:29:01;;;;;;;8.73;3.90;;;;;;;-1.04;93.48;101420.50;4899664;29;20055;-73
2022/01/07 07:31:31;;;;;;;7.03;4.18;;;;;;;-0.81;93.36;101423.13;4901198;29;20527;-85
2022/01/07 07:34:21;;;;;;;6.30;3.50;;;;;;;-0.64;92.26;101431.03;4916226;29;20056;-84
2022/01/07 07:36:49;;;;;;;8.45;3.88;;;;;;;-0.33;91.21;101421.97;4915140;29;20052;-85
2022/01/07 07:39:17;;;;;;;8.68;4.25;;;;;;;-0.31;89.71;101422.59;4904259;29;20509;-84
2022/01/07 07:41:46;;;;;;;8.23;4.40;;;;;;;-0.09;88.53;101428.06;4894739;29;20052;-84
2022/01/07 07:44:14;;;;;;;7.75;4.05;;;;;;;-0.01;86.24;101431.47;4900028;29;20503;-84
2022/01/07 07:46:42;;;;;;;7.20;3.97;;;;;;;0.21;85.99;101428.00;4913527;29;20488;-84
2022/01/07 07:49:11;;;;;;;10.65;4.80;;;;;;;0.34;84.70;101430.00;4909164;29;20060;-84
2022/01/07 07:51:39;;;;;;;8.30;4.32;;;;;;;0.49;84.66;101430.78;4906656;29;20055;-83
2022/01/07 07:54:08;;;;;;;6.47;4.38;;;;;;;0.62;83.43;101431.94;4892043;29;20527;-83
2022/01/07 07:56:36;;;;;;;7.57;3.78;;;;;;;0.79;83.54;101427.97;4897476;29;20063;-84
2022/01/07 07:59:05;;;;;;;8.25;3.92;;;;;;;0.97;82.67;101434.75;4887504;29;20056;-84
2022/01/07 08:01:33;;;;;;;7.43;4.10;;;;;;;1.13;82.32;101430.13;4893707;29;20055;-83
2022/01/07 08:04:01;;;;;;;10.07;4.13;;;;;;;1.18;82.42;101427.66;4895697;29;20075;-83
2022/01/07 08:06:29;;;;;;;8.68;4.38;;;;;;;1.17;81.05;101431.41;4896333;29;20055;-83
2022/01/07 08:08:57;;;;;;;7.43;4.57;;;;;;;1.40;80.67;101431.13;4901055;29;20052;-83
2022/01/07 08:11:30;;;;;;;9.55;4.70;;;;;;;1.58;78.67;101427.09;4895374;29;20044;-83
2022/01/07 08:16:45;;;;;;;11.30;5.88;;;;;;;1.82;78.02;101417.69;4896643;29;20045;-83
2022/01/07 08:19:13;;;;;;;13.00;6.60;;;;;;;1.77;77.20;101414.75;4896509;29;20080;-86
2022/01/07 08:21:41;;;;;;;15.98;7.07;;;;;;;1.81;77.74;101420.56;4896152;29;20079;-83
2022/01/07 08:24:08;;;;;;;16.05;8.13;;;;;;;1.97;76.66;101416.69;4913913;29;20087;-83
2022/01/07 08:26:37;;;;;;;21.17;9.88;;;;;;;2.11;76.39;101421.09;4900813;29;20065;-83
2022/01/07 08:29:07;;;;;;;25.08;11.63;;;;;;;2.09;76.31;101423.16;4895002;29;20057;-83
2022/01/07 08:36:53;;;;;;;17.67;7.80;;;;;;;2.67;73.62;101415.59;4889009;29;20408;-84
2022/01/07 08:39:22;;;;;;;11.68;6.28;;;;;;;2.94;74.63;101419.16;4895449;29;20055;-84
2022/01/07 08:41:50;;;;;;;11.05;5.55;;;;;;;3.06;73.47;101426.66;4897281;29;20045;-84
2022/01/07 08:44:20;;;;;;;9.85;5.65;;;;;;;3.04;71.71;101410.63;4893782;29;20049;-84
2022/01/07 08:46:48;;;;;;;10.85;5.28;;;;;;;2.95;73.66;101415.41;4900714;29;20045;-82
2022/01/07 08:49:16;;;;;;;13.90;6.30;;;;;;;3.04;78.40;101418.72;4899380;29;20052;-83
2022/01/07 08:51:44;;;;;;;21.30;8.60;;;;;;;3.12;75.26;101416.88;4901036;29;20051;-82
2022/01/07 08:54:12;;;;;;;24.88;11.80;;;;;;;3.12;77.06;101414.19;4895415;29;20061;-82
2022/01/07 08:56:40;;;;;;;28.75;10.43;;;;;;;3.24;74.93;101415.22;4901190;29;20388;-83
2022/01/07 08:59:08;;;;;;;21.95;10.15;;;;;;;3.28;74.29;101426.44;4895951;29;20048;-83
2022/01/07 09:01:37;;;;;;;25.67;9.65;;;;;;;3.21;75.00;101412.91;4896208;29;20048;-83
2022/01/07 09:04:05;;;;;;;20.70;9.38;;;;;;;3.36;74.58;101418.09;4909216;29;20044;-83
2022/01/07 09:06:33;;;;;;;15.20;7.10;;;;;;;3.39;75.01;101422.25;4899455;29;20044;-84
2022/01/07 09:09:01;;;;;;;12.68;6.97;;;;;;;3.26;70.89;101413.13;4902142;29;20053;-83
2022/01/07 09:11:29;;;;;;;14.13;6.63;;;;;;;3.22;72.34;101430.78;4894227;29;20048;-83
2022/01/07 09:13:58;;;;;;;13.75;7.32;;;;;;;3.18;74.41;101416.84;4899813;29;20053;-82
2022/01/07 09:16:27;;;;;;;18.88;8.48;;;;;;;3.22;74.29;101425.38;4893169;29;20044;-84
2022/01/07 09:18:55;;;;;;;15.85;8.05;;;;;;;3.29;71.75;101422.69;4900902;29;20052;-88
2022/01/07 09:21:23;;;;;;;16.88;7.43;;;;;;;3.40;73.77;101422.03;4897680;29;20991;-85
2022/01/07 09:23:50;;;;;;;12.18;6.35;;;;;;;3.45;73.50;101424.94;4899210;29;20045;-84
2022/01/07 09:26:18;;;;;;;11.57;6.20;;;;;;;3.56;72.92;101428.06;4898035;29;20052;-83
2022/01/07 09:28:46;;;;;;;14.68;6.80;;;;;;;3.65;73.88;101420.53;4897024;29;20064;-84
2022/01/07 09:31:15;;;;;;;16.67;6.43;;;;;;;3.74;75.84;101428.22;4899222;29;20056;-84
2022/01/07 09:33:43;;;;;;;8.68;5.00;;;;;;;3.82;72.76;101423.59;4897301;29;20068;-84
2022/01/07 09:36:31;;;;;;;6.68;4.70;;;;;;;3.86;71.99;101430.25;4892371;29;20041;-83
2022/01/07 09:38:59;;;;;;;8.63;3.92;;;;;;;3.99;74.11;101427.50;4898003;29;20037;-84
2022/01/07 09:41:27;;;;;;;7.75;4.30;;;;;;;4.09;73.94;101432.44;4898110;29;20043;-84
2022/01/07 09:43:55;;;;;;;9.48;4.88;;;;;;;4.14;72.31;101420.97;4899177;29;20442;-85
2022/01/07 09:46:23;;;;;;;11.43;4.88;;;;;;;4.10;72.55;101417.03;4899063;29;20052;-83
2022/01/07 09:48:52;;;;;;;8.27;5.22;;;;;;;4.15;73.78;101409.06;4898949;29;20060;-83
2022/01/07 09:51:20;;;;;;;11.18;4.70;;;;;;;4.34;74.74;101420.03;4899112;29;20484;-83
2022/01/07 09:53:48;;;;;;;9.38;4.65;;;;;;;4.35;73.53;101410.88;4902269;29;20049;-83
2022/01/07 09:56:19;;;;;;;10.52;5.43;;;;;;;4.39;73.71;101406.66;4899495;29;20061;-83
2022/01/07 09:58:49;;;;;;;10.40;5.15;;;;;;;4.39;72.98;101390.38;4900145;29;20756;-83
2022/01/07 10:01:19;;;;;;;10.30;5.72;;;;;;;4.27;73.10;101393.81;4899318;29;20059;-82
2022/01/07 10:03:48;;;;;;;8.00;5.03;;;;;;;4.31;73.81;101394.22;4899337;29;20056;-82
2022/01/07 10:06:20;;;;;;;9.88;5.55;;;;;;;4.35;73.37;101387.28;4899204;29;20074;-83
2022/01/07 10:09:06;;;;;;;10.88;6.15;;;;;;;4.35;74.76;101383.75;4902625;29;20067;-83
2022/01/07 10:11:34;;;;;;;11.48;6.40;;;;;;;4.39;73.10;101379.53;4903703;29;20048;-83
2022/01/07 10:14:22;;;;;;;14.80;6.07;;;;;;;4.50;73.46;101380.75;4900343;29;20040;-82
2022/01/07 10:16:53;;;;;;;7.53;5.38;;;;;;;4.49;73.64;101373.66;4897803;29;20064;-83
2022/01/07 10:19:36;;;;;;;8.88;5.57;;;;;;;4.62;74.05;101365.44;4898541;29;20052;-83
2022/01/07 10:22:09;;;;;;;7.22;5.10;;;;;;;4.57;71.45;101366.09;4896621;29;20053;-83
2022/01/07 10:24:57;;;;;;;9.65;5.35;;;;;;;4.70;71.98;101365.16;4899706;29;20048;-83
2022/01/07 10:27:36;;;;;;;8.38;5.05;;;;;;;4.76;73.19;101363.44;4898534;29;20048;-82
2022/01/07 10:30:15;;;;;;;6.93;4.78;;;;;;;4.83;72.04;101358.78;4898575;29;20056;-83
2022/01/07 10:32:44;;;;;;;7.82;5.07;;;;;;;4.80;70.46;101353.78;4901659;29;20075;-83
2022/01/07 10:35:25;;;;;;;7.13;4.90;;;;;;;4.86;68.34;101345.81;4904144;29;20052;-83
2022/01/07 10:37:55;;;;;;;7.40;5.07;;;;;;;4.83;69.73;101334.38;4901189;29;20052;-83
2022/01/07 10:40:38;;;;;;;10.13;5.55;;;;;;;4.82;68.13;101335.44;4897110;29;20044;-83
2022/01/07 10:43:12;;;;;;;9.07;5.85;;;;;;;4.95;68.27;101322.81;4896447;29;20045;-82
2022/01/07 10:45:45;;;;;;;13.77;6.47;;;;;;;4.95;64.91;101317.38;4896796;29;20041;-84
2022/01/07 10:48:14;;;;;;;13.07;6.00;;;;;;;4.96;66.92;101313.59;4895739;29;20057;-83
2022/01/07 10:50:53;;;;;;;7.75;5.00;;;;;;;5.06;69.47;101308.50;4896233;29;20049;-83
2022/01/07 10:53:27;;;;;;;8.68;4.90;;;;;;;5.16;66.77;101301.69;4895867;29;20052;-83
2022/01/07 10:56:04;;;;;;;8.48;4.97;;;;;;;5.16;66.24;101307.97;4895152;29;20040;-83
2022/01/07 10:58:48;;;;;;;9.52;4.60;;;;;;;5.26;66.74;101302.00;4896806;29;20041;-83
2022/01/07 11:01:23;;;;;;;6.87;4.80;;;;;;;5.33;66.91;101296.53;4897487;29;20621;-83
2022/01/07 11:03:57;;;;;;;7.20;4.43;;;;;;;5.38;65.77;101293.97;4896993;29;20142;-83
2022/01/07 11:06:33;;;;;;;12.80;5.35;;;;;;;5.33;65.17;101289.19;4893539;29;20518;-83
2022/01/07 11:09:07;;;;;;;7.55;4.53;;;;;;;5.36;64.97;101285.19;4895571;29;20056;-83
2022/01/07 11:11:53;;;;;;;8.00;4.68;;;;;;;5.44;68.89;101278.63;4896045;29;20401;-83
2022/01/07 11:14:24;;;;;;;9.20;4.95;;;;;;;5.43;66.81;101279.69;4896990;29;20052;-83
2022/01/07 11:16:58;;;;;;;7.97;5.10;;;;;;;5.46;70.08;101277.34;4891135;29;20048;-82
2022/01/07 11:19:28;;;;;;;;;;;;;;;5.61;64.24;101282.38;4895026;29;20053;-82
2022/01/07 11:21:57;;;;;;;8.80;5.30;;;;;;;5.69;66.96;101280.41;4895860;29;19923;-82
2022/01/07 11:24:35;;;;;;;7.68;4.32;;;;;;;5.81;65.47;101278.56;4897723;29;20052;-82
2022/01/07 11:27:11;;;;;;;9.70;5.32;;;;;;;5.85;65.25;101274.31;4895695;29;20044;-82
2022/01/07 11:30:04;;;;;;;10.27;5.78;;;;;;;5.95;67.29;101272.94;4895309;29;20076;-82
2022/01/07 11:32:36;;;;;;;11.27;5.40;;;;;;;5.85;64.54;101271.59;4890170;29;20053;-82
2022/01/07 11:35:19;;;;;;;6.25;4.75;;;;;;;5.88;63.45;101265.69;4895035;29;20049;-82